createdAt,value
2023-03-01T00:01:54.836Z,5.20
2023-03-01T00:04:21.706Z,5.20
2023-03-01T00:06:48.573Z,5.30
2023-03-01T00:09:16.133Z,5.20
2023-03-01T00:11:43.184Z,5.20
2023-03-01T00:14:10.059Z,5.20
2023-03-01T00:16:39.755Z,5.30
2023-03-01T00:19:07.005Z,5.20
2023-03-01T00:21:34.906Z,5.20
2023-03-01T00:24:02.243Z,5.20
2023-03-01T00:26:29.471Z,5.20
2023-03-01T00:28:57.996Z,5.30
2023-03-01T00:31:25.929Z,5.30
2023-03-01T00:34:00.106Z,5.20
2023-03-01T00:36:28.438Z,5.20
2023-03-01T00:38:55.478Z,5.20
2023-03-01T00:41:27.539Z,5.20
2023-03-01T00:43:54.916Z,5.10
2023-03-01T00:46:23.431Z,5.00
2023-03-01T00:54:31.226Z,4.70
2023-03-01T00:56:57.986Z,4.70
2023-03-01T00:59:24.858Z,4.60
2023-03-01T01:01:51.706Z,4.60
2023-03-01T01:04:18.484Z,4.50
2023-03-01T01:06:46.656Z,4.50
2023-03-01T01:09:18.225Z,4.50
2023-03-01T01:11:49.520Z,4.50
2023-03-01T01:14:16.782Z,4.50
2023-03-01T01:19:34.007Z,4.30
2023-03-01T01:22:00.761Z,4.30
2023-03-01T01:24:27.608Z,4.30
2023-03-01T01:26:54.370Z,4.20
2023-03-01T01:29:21.137Z,4.20
2023-03-01T01:31:47.968Z,4.20
2023-03-01T01:34:18.945Z,4.10
2023-03-01T01:36:48.793Z,4.10
2023-03-01T01:39:15.554Z,4.00
2023-03-01T01:41:45.499Z,4.10
2023-03-01T01:44:14.508Z,4.10
2023-03-01T01:46:43.683Z,4.10
2023-03-01T01:49:29.017Z,4.10
2023-03-01T01:52:04.961Z,4.00
2023-03-01T01:54:35.935Z,4.00
2023-03-01T01:57:04.500Z,4.00
2023-03-01T01:59:32.946Z,3.90
2023-03-01T02:02:01.742Z,3.90
2023-03-01T02:04:29.134Z,3.90
2023-03-01T02:07:00.272Z,3.90
2023-03-01T02:09:27.832Z,3.90
2023-03-01T02:11:54.892Z,3.80
2023-03-01T02:14:21.674Z,3.80
2023-03-01T02:16:48.723Z,3.80
2023-03-01T02:19:25.007Z,3.80
2023-03-01T02:22:03.133Z,3.80
2023-03-01T02:24:41.679Z,3.80
2023-03-01T02:27:08.501Z,3.70
2023-03-01T02:29:35.307Z,3.80
2023-03-01T02:32:03.864Z,3.80
2023-03-01T02:34:32.119Z,3.70
2023-03-01T02:37:04.003Z,3.70
2023-03-01T02:39:49.591Z,3.70
2023-03-01T02:42:19.563Z,3.80
2023-03-01T02:44:46.469Z,3.70
2023-03-01T02:47:13.324Z,3.70
2023-03-01T02:49:40.270Z,3.80
2023-03-01T02:52:20.665Z,3.80
2023-03-01T02:55:02.020Z,3.90
2023-03-01T02:57:29.901Z,4.00
2023-03-01T02:59:57.410Z,4.00
2023-03-01T03:02:39.934Z,4.10
2023-03-01T03:05:09.379Z,4.10
2023-03-01T03:07:37.677Z,4.10
2023-03-01T03:10:05.540Z,4.10
2023-03-01T03:12:32.512Z,4.10
2023-03-01T03:14:59.423Z,4.00
2023-03-01T03:17:26.242Z,4.00
2023-03-01T03:19:53.132Z,4.00
2023-03-01T03:22:19.919Z,3.90
2023-03-01T03:24:46.733Z,4.00
2023-03-01T03:27:13.518Z,4.00
2023-03-01T03:29:40.327Z,4.10
2023-03-01T03:32:07.105Z,4.00
2023-03-01T03:34:33.939Z,4.00
2023-03-01T03:37:00.792Z,4.00
2023-03-01T03:39:35.842Z,4.00
2023-03-01T03:42:03.016Z,4.00
2023-03-01T03:44:29.834Z,3.90
2023-03-01T03:46:56.617Z,3.90
2023-03-01T03:49:23.482Z,3.80
2023-03-01T03:51:50.231Z,3.80
2023-03-01T03:54:18.232Z,3.80
2023-03-01T03:56:45.086Z,3.80
2023-03-01T03:59:12.522Z,3.80
2023-03-01T04:01:39.338Z,3.80
2023-03-01T04:04:06.126Z,3.80
2023-03-01T04:06:33.126Z,3.80
2023-03-01T04:09:03.456Z,3.80
2023-03-01T04:11:30.274Z,3.90
2023-03-01T04:13:58.448Z,3.80
2023-03-01T04:16:25.580Z,3.80
2023-03-01T04:18:54.478Z,3.80
2023-03-01T04:21:21.448Z,3.90
2023-03-01T04:23:48.249Z,3.90
2023-03-01T04:26:15.072Z,4.00
2023-03-01T04:28:46.301Z,4.00
2023-03-01T04:31:14.698Z,4.00
2023-03-01T04:33:42.668Z,4.00
2023-03-01T04:36:10.191Z,4.00
2023-03-01T04:38:38.286Z,4.00
2023-03-01T04:41:08.859Z,4.00
2023-03-01T04:43:36.037Z,4.00
2023-03-01T04:46:04.162Z,4.00
2023-03-01T04:48:32.548Z,4.10
2023-03-01T04:51:00.265Z,4.10
2023-03-01T04:53:27.662Z,4.10
2023-03-01T04:55:55.462Z,4.10
2023-03-01T04:58:23.624Z,4.20
2023-03-01T05:00:50.470Z,4.20
2023-03-01T05:03:19.274Z,4.20
2023-03-01T05:05:47.300Z,4.20
2023-03-01T05:08:18.447Z,4.20
2023-03-01T05:10:47.269Z,4.20
2023-03-01T05:13:14.767Z,4.30
2023-03-01T05:15:41.761Z,4.30
2023-03-01T05:18:12.391Z,4.30
2023-03-01T05:20:39.492Z,4.30
2023-03-01T05:23:06.786Z,4.40
2023-03-01T05:25:34.809Z,4.40
2023-03-01T05:28:05.306Z,4.50
2023-03-01T05:30:35.383Z,4.50
2023-03-01T05:33:02.188Z,4.50
2023-03-01T05:35:30.598Z,4.60
2023-03-01T05:37:57.419Z,4.60
2023-03-01T05:40:25.294Z,4.60
2023-03-01T05:42:56.065Z,4.60
2023-03-01T05:45:23.971Z,4.60
2023-03-01T05:47:51.083Z,4.60
2023-03-01T05:50:22.441Z,4.70
2023-03-01T05:52:51.199Z,4.70
2023-03-01T05:55:19.958Z,4.60
2023-03-01T05:57:47.226Z,4.70
2023-03-01T06:00:14.714Z,4.70
2023-03-01T06:02:41.669Z,4.70
2023-03-01T06:05:09.512Z,4.80
2023-03-01T06:07:36.470Z,4.80
2023-03-01T06:10:04.155Z,4.80
2023-03-01T06:12:31.699Z,4.80
2023-03-01T06:14:58.476Z,4.80
2023-03-01T06:17:25.229Z,4.80
2023-03-01T06:19:52.007Z,4.90
2023-03-01T06:22:18.747Z,4.90
2023-03-01T06:24:45.504Z,4.90
2023-03-01T06:27:12.340Z,4.90
2023-03-01T06:29:40.666Z,5.00
2023-03-01T06:32:09.218Z,5.00
2023-03-01T06:34:36.003Z,5.10
2023-03-01T06:37:06.188Z,5.10
2023-03-01T06:39:33.604Z,5.00
2023-03-01T06:42:00.649Z,5.10
2023-03-01T06:44:27.933Z,5.20
2023-03-01T06:46:55.097Z,5.10
2023-03-01T06:49:22.214Z,5.30
2023-03-01T06:51:49.009Z,5.20
2023-03-01T06:54:15.853Z,5.30
2023-03-01T06:56:42.630Z,5.30
2023-03-01T06:59:09.404Z,5.30
2023-03-01T07:01:36.347Z,5.40
2023-03-01T07:04:03.132Z,5.40
2023-03-01T07:06:30.209Z,5.40
2023-03-01T07:08:57.169Z,5.30
2023-03-01T07:11:24.366Z,5.30
2023-03-01T07:13:51.247Z,5.30
2023-03-01T07:16:18.164Z,5.20
2023-03-01T07:18:44.994Z,5.20
2023-03-01T07:21:13.197Z,5.30
2023-03-01T07:23:40.078Z,5.30
2023-03-01T07:26:07.069Z,5.30
2023-03-01T07:28:39.363Z,5.30
2023-03-01T07:31:07.309Z,5.40
2023-03-01T07:33:34.229Z,5.40
2023-03-01T07:36:01.859Z,5.40
2023-03-01T07:38:29.149Z,5.30
2023-03-01T07:40:59.383Z,5.30
2023-03-01T07:43:26.168Z,5.40
2023-03-01T07:45:53.172Z,5.40
2023-03-01T07:48:20.122Z,5.50
2023-03-01T07:50:46.911Z,5.50
2023-03-01T07:53:13.714Z,5.50
2023-03-01T07:55:40.509Z,5.50
2023-03-01T07:58:07.334Z,5.60
2023-03-01T08:00:34.158Z,5.50
2023-03-01T08:03:02.008Z,5.50
2023-03-01T08:05:29.551Z,5.50
2023-03-01T08:07:56.390Z,5.50
2023-03-01T08:10:23.236Z,5.60
2023-03-01T08:12:52.040Z,5.50
2023-03-01T08:15:19.863Z,5.50
2023-03-01T08:17:46.730Z,5.60
2023-03-01T08:20:13.813Z,5.60
2023-03-01T08:22:40.608Z,5.60
2023-03-01T08:25:07.635Z,5.60
2023-03-01T08:27:34.432Z,5.60
2023-03-01T08:30:01.309Z,5.50
2023-03-01T08:32:28.307Z,5.50
2023-03-01T08:34:55.206Z,5.60
2023-03-01T08:37:22.009Z,5.60
2023-03-01T08:39:48.989Z,5.70
2023-03-01T08:42:18.527Z,5.70
2023-03-01T08:44:46.978Z,5.80
2023-03-01T08:47:19.534Z,5.80
2023-03-01T08:49:50.132Z,5.90
2023-03-01T08:52:17.764Z,6.00
2023-03-01T08:55:06.843Z,6.10
2023-03-01T08:57:37.638Z,6.20
2023-03-01T09:00:11.861Z,6.40
2023-03-01T09:02:43.214Z,6.50
2023-03-01T09:07:51.326Z,6.60
2023-03-01T09:10:19.260Z,6.60
2023-03-01T09:12:46.445Z,6.50
2023-03-01T09:15:13.333Z,6.60
2023-03-01T09:17:40.268Z,6.60
2023-03-01T09:20:08.624Z,6.60
2023-03-01T09:22:36.045Z,6.60
2023-03-01T09:25:03.090Z,6.60
2023-03-01T09:27:30.021Z,6.60
2023-03-01T09:29:57.641Z,6.50
2023-03-01T09:32:24.539Z,6.50
2023-03-01T09:35:06.727Z,6.60
2023-03-01T09:37:41.213Z,6.80
2023-03-01T09:40:40.216Z,7.30
2023-03-01T09:46:18.240Z,7.60
2023-03-01T09:49:02.645Z,7.50
2023-03-01T09:54:55.551Z,7.50
2023-03-01T09:57:32.045Z,8.10
2023-03-01T10:00:10.296Z,8.80
2023-03-01T10:02:46.481Z,9.30
2023-03-01T10:05:33.430Z,9.90
2023-03-01T10:08:22.856Z,10.00
2023-03-01T10:11:08.927Z,9.70
2023-03-01T10:13:50.341Z,9.30
2023-03-01T10:16:36.217Z,9.00
2023-03-01T10:19:16.896Z,9.00
2023-03-01T10:21:49.402Z,9.40
2023-03-01T10:24:20.322Z,9.10
2023-03-01T10:27:01.041Z,8.80
2023-03-01T10:29:50.302Z,8.60
2023-03-01T10:32:18.992Z,8.40
2023-03-01T10:34:49.626Z,8.20
2023-03-01T10:37:23.254Z,8.10
2023-03-01T10:39:57.582Z,8.10
2023-03-01T10:42:32.557Z,8.10
2023-03-01T10:47:28.163Z,8.00
2023-03-01T10:49:57.153Z,7.90
2023-03-01T10:52:26.819Z,7.80
2023-03-01T10:55:01.437Z,7.70
2023-03-01T10:57:39.393Z,7.60
2023-03-01T11:00:19.648Z,7.40
2023-03-01T11:02:52.817Z,7.50
2023-03-01T11:08:13.721Z,7.30
2023-03-01T11:11:09.581Z,7.30
2023-03-01T11:13:57.651Z,7.40
2023-03-01T11:16:29.885Z,7.50
2023-03-01T11:19:00.077Z,7.80
2023-03-01T11:21:41.066Z,8.00
2023-03-01T11:24:11.502Z,8.30
2023-03-01T11:26:44.131Z,8.70
2023-03-01T11:29:37.282Z,8.90
2023-03-01T11:32:12.214Z,8.70
2023-03-01T11:35:15.763Z,8.70
2023-03-01T11:38:11.837Z,8.40
2023-03-01T11:40:43.428Z,8.60
2023-03-01T11:43:22.177Z,8.70
2023-03-01T11:46:05.476Z,8.80
2023-03-01T11:48:51.693Z,8.80
2023-03-01T11:51:28.881Z,8.70
2023-03-01T11:54:15.952Z,8.60
2023-03-01T11:59:45.539Z,8.20
2023-03-01T12:03:01.731Z,8.00
2023-03-01T12:05:39.461Z,7.80
2023-03-01T12:08:07.066Z,7.80
2023-03-01T12:10:58.287Z,7.80
2023-03-01T12:13:25.450Z,7.90
2023-03-01T12:16:00.877Z,7.90
2023-03-01T12:18:47.242Z,7.90
2023-03-01T12:21:18.588Z,7.90
2023-03-01T12:24:05.745Z,7.90
2023-03-01T12:29:36.773Z,7.80
2023-03-01T12:35:40.934Z,7.80
2023-03-01T12:38:42.676Z,7.90
2023-03-01T12:41:10.223Z,8.00
2023-03-01T12:46:44.994Z,8.20
2023-03-01T12:52:24.429Z,8.50
2023-03-01T12:55:19.298Z,8.60
2023-03-01T12:58:05.114Z,8.80
2023-03-01T13:00:43.615Z,8.90
2023-03-01T13:03:14.108Z,8.90
2023-03-01T13:08:44.927Z,9.00
2023-03-01T13:11:26.901Z,9.00
2023-03-01T13:14:30.715Z,9.00
2023-03-01T13:21:21.461Z,9.20
2023-03-01T13:24:13.101Z,9.10
2023-03-01T13:33:38.017Z,8.80
2023-03-01T13:36:08.316Z,8.90
2023-03-01T13:38:41.513Z,8.90
2023-03-01T13:41:11.102Z,8.90
2023-03-01T13:43:39.599Z,9.00
2023-03-01T13:46:12.427Z,8.90
2023-03-01T13:48:40.001Z,8.90
2023-03-01T13:51:10.161Z,8.90
2023-03-01T13:53:42.479Z,8.90
2023-03-01T13:56:16.604Z,8.90
2023-03-01T13:59:05.909Z,8.90
2023-03-01T14:01:43.723Z,8.80
2023-03-01T14:04:28.090Z,8.80
2023-03-01T14:07:15.386Z,8.80
2023-03-01T14:09:43.816Z,8.70
2023-03-01T14:12:30.061Z,8.70
2023-03-01T14:15:16.157Z,8.60
2023-03-01T14:17:50.717Z,8.60
2023-03-01T14:20:20.336Z,8.50
2023-03-01T14:22:48.928Z,8.50
2023-03-01T14:25:19.210Z,8.50
2023-03-01T14:27:52.808Z,8.50
2023-03-01T14:30:25.383Z,8.50
2023-03-01T14:33:19.015Z,8.50
2023-03-01T14:36:02.200Z,8.50
2023-03-01T14:38:37.007Z,8.50
2023-03-01T14:41:24.776Z,8.60
2023-03-01T14:43:59.662Z,8.50
2023-03-01T14:46:49.253Z,8.50
2023-03-01T14:49:16.664Z,8.50
2023-03-01T14:51:47.214Z,8.50
2023-03-01T14:54:26.736Z,8.50
2023-03-01T14:56:54.417Z,8.60
2023-03-01T14:59:23.788Z,8.60
2023-03-01T15:01:52.635Z,8.60
2023-03-01T15:04:20.671Z,8.60
2023-03-01T15:06:48.021Z,8.60
2023-03-01T15:09:16.272Z,8.60
2023-03-01T15:11:44.844Z,8.70
2023-03-01T15:14:29.101Z,8.80
2023-03-01T15:16:56.940Z,8.70
2023-03-01T15:19:28.396Z,8.80
2023-03-01T15:24:40.550Z,8.90
2023-03-01T15:27:15.978Z,8.90
2023-03-01T15:29:48.972Z,8.90
2023-03-01T15:32:27.579Z,9.00
2023-03-01T15:34:55.931Z,8.90
2023-03-01T15:37:45.925Z,8.90
2023-03-01T15:40:32.631Z,8.90
2023-03-01T15:43:03.866Z,8.80
2023-03-01T15:45:39.980Z,8.80
2023-03-01T15:48:21.410Z,8.80
2023-03-01T15:50:58.574Z,8.80
2023-03-01T15:53:25.759Z,8.80
2023-03-01T15:55:57.648Z,8.80
2023-03-01T16:07:09.083Z,8.70
2023-03-01T16:10:01.289Z,8.70
2023-03-01T16:12:59.313Z,8.60
2023-03-01T16:18:11.719Z,8.40
2023-03-01T16:20:38.932Z,8.40
2023-03-01T16:23:08.370Z,8.30
2023-03-01T16:25:36.329Z,8.30
2023-03-01T16:28:09.787Z,8.20
2023-03-01T16:30:37.499Z,8.20
2023-03-01T16:33:19.238Z,8.20
2023-03-01T16:35:51.820Z,8.10
2023-03-01T16:38:19.156Z,8.10
2023-03-01T16:40:50.042Z,8.10
2023-03-01T16:43:17.079Z,8.10
2023-03-01T16:45:45.980Z,8.10
2023-03-01T16:48:30.618Z,8.10
2023-03-01T16:51:00.114Z,8.00
2023-03-01T16:53:37.226Z,8.00
2023-03-01T16:56:21.656Z,8.00
2023-03-01T16:58:49.000Z,8.00
2023-03-01T17:01:20.860Z,7.90
2023-03-01T17:03:49.770Z,7.90
2023-03-01T17:06:18.683Z,7.90
2023-03-01T17:08:45.752Z,7.80
2023-03-01T17:11:17.877Z,7.80
2023-03-01T17:13:45.098Z,7.80
2023-03-01T17:16:20.966Z,7.80
2023-03-01T17:18:59.133Z,7.80
2023-03-01T17:21:27.141Z,7.70
2023-03-01T17:23:57.702Z,7.70
2023-03-01T17:26:25.642Z,7.70
2023-03-01T17:28:53.418Z,7.70
2023-03-01T17:31:20.418Z,7.70
2023-03-01T17:33:47.326Z,7.70
2023-03-01T17:36:14.193Z,7.70
2023-03-01T17:38:41.201Z,7.70
2023-03-01T17:41:08.135Z,7.70
2023-03-01T17:43:35.264Z,7.70
2023-03-01T17:46:02.181Z,7.80
2023-03-01T17:48:29.091Z,7.80
2023-03-01T17:50:56.065Z,7.80
2023-03-01T17:53:23.161Z,7.80
2023-03-01T17:55:54.246Z,7.80
2023-03-01T17:58:23.056Z,7.80
2023-03-01T18:00:50.910Z,7.80
2023-03-01T18:03:17.998Z,7.80
2023-03-01T18:05:44.905Z,7.80
2023-03-01T18:08:11.676Z,7.80
2023-03-01T18:10:38.567Z,7.80
2023-03-01T18:13:05.590Z,7.70
2023-03-01T18:15:32.936Z,7.80
2023-03-01T18:17:59.883Z,7.70
2023-03-01T18:20:27.487Z,7.80
2023-03-01T18:22:54.297Z,7.70
2023-03-01T18:25:22.198Z,7.70
2023-03-01T18:27:49.212Z,7.70
2023-03-01T18:30:16.089Z,7.70
2023-03-01T18:32:45.100Z,7.70
2023-03-01T18:35:11.940Z,7.60
2023-03-01T18:37:38.762Z,7.60
2023-03-01T18:40:05.867Z,7.60
2023-03-01T18:42:32.620Z,7.60
2023-03-01T18:44:59.586Z,7.60
2023-03-01T18:47:26.363Z,7.50
2023-03-01T18:49:53.796Z,7.50
2023-03-01T18:52:20.566Z,7.50
2023-03-01T18:54:47.370Z,7.40
2023-03-01T18:57:14.164Z,7.40
2023-03-01T18:59:41.045Z,7.30
2023-03-01T19:02:08.258Z,7.30
2023-03-01T19:04:35.050Z,7.20
2023-03-01T19:07:02.333Z,7.20
2023-03-01T19:09:29.301Z,7.20
2023-03-01T19:11:58.974Z,7.10
2023-03-01T19:14:25.887Z,7.10
2023-03-01T19:16:52.766Z,7.00
2023-03-01T19:19:19.544Z,6.90
2023-03-01T19:21:56.044Z,6.90
2023-03-01T19:24:31.612Z,6.80
2023-03-01T19:26:58.674Z,6.80
2023-03-01T19:29:26.329Z,6.70
2023-03-01T19:31:53.219Z,6.60
2023-03-01T19:34:22.920Z,6.60
2023-03-01T19:36:49.801Z,6.60
2023-03-01T19:39:16.798Z,6.50
2023-03-01T19:41:44.174Z,6.50
2023-03-01T19:44:11.656Z,6.40
2023-03-01T19:46:38.604Z,6.40
2023-03-01T19:49:05.643Z,6.40
2023-03-01T19:51:38.860Z,6.40
2023-03-01T19:54:06.280Z,6.40
2023-03-01T19:56:34.247Z,6.40
2023-03-01T19:59:04.236Z,6.40
2023-03-01T20:01:34.312Z,6.30
2023-03-01T20:04:02.154Z,6.30
2023-03-01T20:06:30.455Z,6.30
2023-03-01T20:08:57.957Z,6.20
2023-03-01T20:11:25.482Z,6.20
2023-03-01T20:13:52.332Z,6.10
2023-03-01T20:16:20.232Z,6.10
2023-03-01T20:18:47.039Z,6.10
2023-03-01T20:21:23.500Z,6.00
2023-03-01T20:23:51.897Z,6.00
2023-03-01T20:26:21.949Z,6.00
2023-03-01T20:28:51.689Z,6.00
2023-03-01T20:31:19.953Z,6.00
2023-03-01T20:33:47.087Z,5.90
2023-03-01T20:36:14.625Z,6.10
2023-03-01T20:38:41.418Z,5.80
2023-03-01T20:41:12.433Z,5.80
2023-03-01T20:43:40.562Z,5.80
2023-03-01T20:46:08.553Z,5.80
2023-03-01T20:48:35.335Z,5.80
2023-03-01T20:51:06.115Z,5.90
2023-03-01T20:53:32.993Z,5.90
2023-03-01T20:56:06.837Z,5.90
2023-03-01T20:58:34.653Z,5.90
2023-03-01T21:01:02.085Z,5.90
2023-03-01T21:03:29.223Z,5.90
2023-03-01T21:05:56.662Z,5.90
2023-03-01T21:08:23.566Z,5.90
2023-03-01T21:10:53.602Z,5.90
2023-03-01T21:13:20.899Z,6.00
2023-03-01T21:15:54.350Z,6.00
2023-03-01T21:18:21.569Z,6.00
2023-03-01T21:20:48.567Z,6.00
2023-03-01T21:23:15.604Z,6.10
2023-03-01T21:25:42.611Z,6.10
2023-03-01T21:28:09.669Z,6.10
2023-03-01T21:30:36.806Z,6.10
2023-03-01T21:33:03.734Z,6.10
2023-03-01T21:35:30.532Z,6.20
2023-03-01T21:37:57.331Z,6.20
2023-03-01T21:40:24.158Z,6.20
2023-03-01T21:42:50.982Z,6.30
2023-03-01T21:45:17.894Z,6.30
2023-03-01T21:47:44.711Z,6.30
2023-03-01T21:50:11.809Z,6.30
2023-03-01T21:52:38.676Z,6.30
2023-03-01T21:55:05.713Z,6.30
2023-03-01T21:57:32.645Z,6.30
2023-03-01T21:59:59.411Z,6.30
2023-03-01T22:02:26.245Z,6.30
2023-03-01T22:04:57.567Z,6.30
2023-03-01T22:07:24.454Z,6.30
2023-03-01T22:09:51.271Z,6.30
2023-03-01T22:12:18.104Z,6.30
2023-03-01T22:14:44.934Z,6.30
2023-03-01T22:17:11.695Z,6.30
2023-03-01T22:19:38.545Z,6.30
2023-03-01T22:22:05.302Z,6.30
2023-03-01T22:24:32.132Z,6.30
2023-03-01T22:26:58.989Z,6.30
2023-03-01T22:29:27.525Z,6.30
2023-03-01T22:31:55.216Z,6.30
2023-03-01T22:34:22.311Z,6.30
2023-03-01T22:36:49.111Z,6.30
2023-03-01T22:39:17.153Z,6.30
2023-03-01T22:41:45.686Z,6.30
2023-03-01T22:44:13.276Z,6.30
2023-03-01T22:46:40.214Z,6.30
2023-03-01T22:49:07.205Z,6.30
2023-03-01T22:51:35.865Z,6.30
2023-03-01T22:54:03.286Z,6.30
2023-03-01T22:56:31.679Z,6.30
2023-03-01T22:58:59.302Z,6.30
2023-03-01T23:01:26.401Z,6.30
2023-03-01T23:03:53.162Z,6.30
2023-03-01T23:06:20.697Z,6.30
2023-03-01T23:08:55.222Z,6.20
2023-03-01T23:11:22.361Z,6.30
2023-03-01T23:13:49.541Z,6.30
2023-03-01T23:16:16.563Z,6.30
2023-03-01T23:18:43.689Z,6.30
2023-03-01T23:21:11.490Z,6.40
2023-03-01T23:23:38.685Z,6.30
2023-03-01T23:26:06.079Z,6.40
2023-03-01T23:28:33.255Z,6.40
2023-03-01T23:31:01.720Z,6.40
2023-03-01T23:33:29.273Z,6.40
2023-03-01T23:35:56.125Z,6.40
2023-03-01T23:38:22.967Z,6.50
2023-03-01T23:40:49.791Z,6.40
2023-03-01T23:43:16.598Z,6.40
2023-03-01T23:45:43.888Z,6.40
2023-03-01T23:48:11.753Z,6.50
2023-03-01T23:50:42.085Z,6.50
2023-03-01T23:53:18.332Z,6.50
2023-03-01T23:55:49.320Z,6.50
2023-03-01T23:58:16.096Z,6.50
